createdAt,value
2022-07-29T00:01:44.693Z,5.90
2022-07-29T00:04:14.411Z,6.00
2022-07-29T00:06:43.123Z,6.10
2022-07-29T00:09:11.608Z,6.50
2022-07-29T00:11:39.969Z,7.80
2022-07-29T00:14:08.558Z,8.30
2022-07-29T00:16:37.161Z,6.50
2022-07-29T00:19:06.038Z,5.50
2022-07-29T00:21:36.264Z,5.10
2022-07-29T00:24:04.825Z,4.50
2022-07-29T00:26:33.734Z,5.10
2022-07-29T00:31:53.383Z,5.70
2022-07-29T00:34:40.257Z,5.10
2022-07-29T00:37:08.546Z,5.10
2022-07-29T00:39:36.754Z,5.10
2022-07-29T00:42:06.266Z,4.60
2022-07-29T00:44:39.552Z,4.70
2022-07-29T00:47:09.451Z,4.80
2022-07-29T00:49:40.823Z,4.80
2022-07-29T00:52:11.765Z,4.60
2022-07-29T00:54:44.042Z,5.00
2022-07-29T00:57:14.650Z,4.70
2022-07-29T00:59:42.907Z,5.30
2022-07-29T01:02:11.376Z,4.80
2022-07-29T01:04:41.133Z,5.10
2022-07-29T01:07:09.516Z,5.10
2022-07-29T01:09:45.473Z,5.20
2022-07-29T01:12:20.334Z,5.30
2022-07-29T01:14:50.610Z,6.30
2022-07-29T01:18:08.159Z,4.90
2022-07-29T01:20:54.730Z,4.60
2022-07-29T01:23:59.469Z,5.00
2022-07-29T01:26:49.253Z,4.60
2022-07-29T01:29:24.216Z,4.70
2022-07-29T01:32:27.795Z,4.80
2022-07-29T01:35:15.438Z,5.10
2022-07-29T01:37:57.002Z,4.50
2022-07-29T01:40:54.905Z,3.90
2022-07-29T01:43:43.437Z,4.40
2022-07-29T01:46:21.286Z,4.40
2022-07-29T01:48:56.230Z,4.20
2022-07-29T01:51:37.078Z,4.20
2022-07-29T01:54:18.187Z,3.80
2022-07-29T01:57:00.569Z,3.80
2022-07-29T01:59:31.064Z,4.40
2022-07-29T02:02:01.503Z,4.30
2022-07-29T02:04:32.784Z,4.70
2022-07-29T02:07:07.085Z,4.30
2022-07-29T02:09:39.012Z,4.40
2022-07-29T02:12:08.568Z,4.60
2022-07-29T02:14:44.069Z,4.60
2022-07-29T02:17:14.487Z,4.40
2022-07-29T02:19:46.003Z,4.40
2022-07-29T02:22:15.608Z,4.50
2022-07-29T02:24:45.468Z,4.10
2022-07-29T02:27:15.352Z,4.70
2022-07-29T02:29:45.717Z,5.00
2022-07-29T02:32:17.195Z,4.70
2022-07-29T02:34:47.640Z,5.50
2022-07-29T02:37:18.289Z,5.20
2022-07-29T02:39:49.924Z,5.40
2022-07-29T02:42:19.816Z,5.90
2022-07-29T02:44:48.176Z,5.40
2022-07-29T02:47:47.103Z,5.70
2022-07-29T02:50:19.124Z,5.50
2022-07-29T02:53:09.729Z,5.70
2022-07-29T02:56:05.683Z,5.90
2022-07-29T02:58:40.320Z,7.00
2022-07-29T03:01:24.617Z,6.60
2022-07-29T03:03:55.119Z,5.70
2022-07-29T03:06:37.975Z,7.70
2022-07-29T03:09:13.669Z,6.20
2022-07-29T03:11:49.418Z,6.10
2022-07-29T03:14:21.187Z,6.10
2022-07-29T03:16:51.639Z,6.70
2022-07-29T03:19:21.563Z,6.20
2022-07-29T03:21:50.102Z,6.60
2022-07-29T03:24:31.198Z,6.70
2022-07-29T03:27:00.014Z,7.70
2022-07-29T03:29:33.503Z,6.90
2022-07-29T03:32:08.111Z,6.60
2022-07-29T03:34:39.051Z,7.40
2022-07-29T03:37:07.726Z,6.80
2022-07-29T03:39:42.553Z,6.60
2022-07-29T03:42:16.776Z,6.80
2022-07-29T03:44:48.836Z,5.90
2022-07-29T03:47:23.473Z,7.00
2022-07-29T03:50:15.974Z,7.20
2022-07-29T03:52:45.453Z,7.60
2022-07-29T03:55:15.748Z,12.00
2022-07-29T03:57:45.935Z,17.00
2022-07-29T04:00:16.720Z,14.30
2022-07-29T04:02:49.627Z,13.50
2022-07-29T04:05:19.360Z,13.50
2022-07-29T04:07:49.849Z,13.70
2022-07-29T04:10:26.330Z,13.60
2022-07-29T04:13:01.073Z,11.20
2022-07-29T04:15:31.034Z,11.70
2022-07-29T04:18:00.649Z,11.30
2022-07-29T04:20:29.235Z,11.70
2022-07-29T04:22:57.579Z,10.40
2022-07-29T04:25:25.864Z,11.50
2022-07-29T04:28:03.018Z,10.80
2022-07-29T04:30:33.101Z,9.30
2022-07-29T04:33:03.826Z,9.50
2022-07-29T04:35:38.207Z,10.50
2022-07-29T04:38:15.816Z,12.70
2022-07-29T04:40:45.687Z,12.70
2022-07-29T04:43:17.091Z,11.60
2022-07-29T04:45:51.573Z,12.90
2022-07-29T04:48:21.961Z,12.10
2022-07-29T04:50:52.343Z,12.70
2022-07-29T04:53:20.866Z,11.90
2022-07-29T04:55:49.240Z,12.60
2022-07-29T04:58:17.551Z,10.70
2022-07-29T05:00:45.817Z,9.10
2022-07-29T05:03:14.327Z,8.50
2022-07-29T05:05:43.447Z,6.60
2022-07-29T05:08:11.723Z,6.40
2022-07-29T05:10:39.942Z,7.50
2022-07-29T05:13:09.120Z,7.80
2022-07-29T05:15:38.087Z,10.00
2022-07-29T05:18:06.543Z,9.20
2022-07-29T05:20:35.747Z,8.50
2022-07-29T05:23:04.853Z,7.90
2022-07-29T05:25:44.366Z,8.40
2022-07-29T05:28:13.965Z,8.40
2022-07-29T05:30:42.779Z,8.90
2022-07-29T05:33:34.693Z,8.90
2022-07-29T05:36:01.171Z,9.10
2022-07-29T05:38:30.377Z,9.50
2022-07-29T05:41:01.296Z,11.80
2022-07-29T05:43:30.017Z,11.00
2022-07-29T05:45:58.757Z,10.10
2022-07-29T05:48:27.191Z,8.70
2022-07-29T05:50:55.898Z,8.30
2022-07-29T05:53:24.544Z,8.40
2022-07-29T05:55:53.338Z,8.00
2022-07-29T05:58:21.768Z,6.60
2022-07-29T06:00:50.434Z,7.30
2022-07-29T06:03:18.709Z,7.70
2022-07-29T06:05:46.897Z,8.70
2022-07-29T06:08:15.148Z,9.50
2022-07-29T06:10:43.616Z,8.90
2022-07-29T06:13:11.791Z,8.50
2022-07-29T06:15:40.396Z,8.80
2022-07-29T06:18:11.060Z,8.00
2022-07-29T06:20:39.580Z,10.20
2022-07-29T06:23:07.886Z,10.20
2022-07-29T06:25:37.808Z,9.70
2022-07-29T06:28:06.127Z,8.20
2022-07-29T06:30:34.709Z,8.60
2022-07-29T06:33:04.348Z,8.00
2022-07-29T06:35:42.120Z,8.90
2022-07-29T06:38:31.260Z,9.20
2022-07-29T06:41:04.125Z,8.80
2022-07-29T06:43:36.023Z,9.10
2022-07-29T06:46:21.439Z,8.00
2022-07-29T06:48:52.981Z,8.30
2022-07-29T06:51:23.921Z,10.80
2022-07-29T06:53:59.979Z,9.60
2022-07-29T06:56:39.555Z,9.20
2022-07-29T06:59:10.894Z,8.30
2022-07-29T07:01:41.566Z,9.40
2022-07-29T07:04:10.917Z,10.20
2022-07-29T07:06:39.432Z,10.10
2022-07-29T07:09:08.192Z,9.10
2022-07-29T07:11:36.675Z,8.30
2022-07-29T07:14:05.051Z,9.00
2022-07-29T07:16:33.572Z,9.50
2022-07-29T07:19:02.637Z,9.10
2022-07-29T07:21:31.427Z,9.30
2022-07-29T07:24:01.058Z,9.00
2022-07-29T07:26:30.125Z,9.80
2022-07-29T07:28:59.024Z,9.10
2022-07-29T07:31:27.460Z,9.00
2022-07-29T07:33:56.394Z,8.70
2022-07-29T07:36:25.078Z,8.90
2022-07-29T07:38:53.459Z,8.10
2022-07-29T07:41:23.458Z,8.60
2022-07-29T07:43:51.954Z,8.60
2022-07-29T07:46:20.829Z,8.40
2022-07-29T07:48:49.338Z,7.30
2022-07-29T07:51:17.914Z,7.80
2022-07-29T07:53:46.148Z,7.70
2022-07-29T07:56:14.487Z,8.00
2022-07-29T07:58:42.869Z,8.20
2022-07-29T08:01:11.603Z,8.40
2022-07-29T08:03:40.078Z,7.70
2022-07-29T08:06:08.501Z,7.80
2022-07-29T08:08:36.879Z,6.20
2022-07-29T08:11:09.522Z,7.40
2022-07-29T08:13:39.506Z,7.40
2022-07-29T08:16:16.592Z,6.50
2022-07-29T08:18:47.034Z,7.40
2022-07-29T08:21:16.738Z,6.80
2022-07-29T08:24:15.591Z,7.10
2022-07-29T08:26:45.081Z,7.30
2022-07-29T08:29:18.354Z,6.70
2022-07-29T08:31:48.762Z,7.10
2022-07-29T08:34:17.198Z,6.70
2022-07-29T08:36:45.427Z,6.30
2022-07-29T08:39:19.156Z,7.10
2022-07-29T08:41:57.374Z,6.30
2022-07-29T08:44:31.131Z,6.90
2022-07-29T08:46:59.586Z,6.90
2022-07-29T08:49:28.174Z,7.10
2022-07-29T08:51:58.900Z,6.90
2022-07-29T08:54:29.119Z,6.30
2022-07-29T08:56:58.455Z,6.90
2022-07-29T08:59:31.611Z,6.90
2022-07-29T09:04:36.977Z,6.90
2022-07-29T09:07:07.146Z,6.90
2022-07-29T09:09:35.889Z,7.40
2022-07-29T09:12:05.287Z,6.70
2022-07-29T09:14:33.594Z,7.10
2022-07-29T09:17:02.131Z,7.30
2022-07-29T09:19:35.840Z,6.80
2022-07-29T09:22:10.404Z,6.70
2022-07-29T09:24:48.431Z,6.50
2022-07-29T09:27:27.770Z,6.30
2022-07-29T09:30:11.796Z,6.80
2022-07-29T09:33:02.333Z,6.80
2022-07-29T09:35:32.412Z,6.50
2022-07-29T09:38:15.002Z,7.20
2022-07-29T09:43:28.758Z,7.00
2022-07-29T09:45:57.464Z,6.60
2022-07-29T09:48:26.436Z,6.50
2022-07-29T09:50:56.174Z,6.50
2022-07-29T09:53:38.996Z,6.90
2022-07-29T09:56:07.265Z,6.90
2022-07-29T09:58:35.929Z,7.00
2022-07-29T10:01:05.183Z,6.40
2022-07-29T10:03:33.663Z,6.50
2022-07-29T10:06:10.592Z,6.70
2022-07-29T10:08:39.006Z,6.80
2022-07-29T10:11:19.277Z,7.00
2022-07-29T10:13:50.054Z,7.00
2022-07-29T10:16:19.045Z,6.70
2022-07-29T10:18:48.106Z,6.70
2022-07-29T10:21:34.909Z,7.20
2022-07-29T10:24:07.662Z,7.00
2022-07-29T10:26:45.787Z,6.50
2022-07-29T10:29:14.135Z,6.10
2022-07-29T10:31:57.662Z,7.00
2022-07-29T10:34:49.912Z,6.40
2022-07-29T10:37:50.239Z,6.30
2022-07-29T10:40:57.381Z,6.40
2022-07-29T10:43:48.290Z,6.50
2022-07-29T10:46:20.801Z,7.60
2022-07-29T10:49:27.951Z,6.70
2022-07-29T10:52:09.621Z,6.10
2022-07-29T10:54:43.700Z,6.40
2022-07-29T10:57:25.581Z,6.30
2022-07-29T11:00:07.190Z,6.20
2022-07-29T11:02:41.728Z,6.20
2022-07-29T11:05:18.944Z,6.90
2022-07-29T11:08:20.279Z,6.40
2022-07-29T11:10:51.096Z,6.70
2022-07-29T11:13:52.229Z,6.80
2022-07-29T11:16:26.785Z,6.10
2022-07-29T11:19:13.509Z,6.40
2022-07-29T11:22:05.411Z,6.70
2022-07-29T11:24:35.240Z,7.00
2022-07-29T11:27:23.702Z,6.20
2022-07-29T11:30:03.388Z,6.20
2022-07-29T11:32:44.841Z,7.10
2022-07-29T11:35:36.742Z,6.20
2022-07-29T11:38:27.662Z,6.10
2022-07-29T11:41:18.976Z,6.30
2022-07-29T11:44:02.490Z,6.20
2022-07-29T11:46:54.103Z,6.50
2022-07-29T11:49:31.507Z,6.40
2022-07-29T11:52:04.981Z,7.20
2022-07-29T11:54:38.793Z,6.60
2022-07-29T11:57:36.582Z,6.60
2022-07-29T12:00:14.634Z,6.70
2022-07-29T12:05:48.168Z,6.50
2022-07-29T12:07:02.499Z,6.60
2022-07-29T12:08:23.177Z,7.10
2022-07-29T12:10:51.986Z,6.70
2022-07-29T12:13:22.235Z,6.50
2022-07-29T12:15:57.888Z,6.70
2022-07-29T12:18:28.642Z,7.10
2022-07-29T12:21:05.257Z,7.20
2022-07-29T12:23:35.010Z,6.50
2022-07-29T12:26:11.014Z,7.00
2022-07-29T12:28:54.735Z,8.30
2022-07-29T12:31:42.956Z,8.00
2022-07-29T12:34:16.367Z,7.60
2022-07-29T12:36:45.054Z,7.70
2022-07-29T12:39:13.660Z,7.60
2022-07-29T12:41:41.881Z,7.30
2022-07-29T12:44:10.832Z,7.70
2022-07-29T12:46:39.554Z,7.50
2022-07-29T12:49:08.086Z,7.40
2022-07-29T12:51:39.973Z,7.90
2022-07-29T12:54:14.546Z,16.70
2022-07-29T12:56:45.567Z,10.10
2022-07-29T12:59:22.635Z,8.20
2022-07-29T13:01:53.640Z,8.00
2022-07-29T13:04:30.376Z,8.40
2022-07-29T13:07:09.139Z,9.10
2022-07-29T13:09:44.554Z,8.10
2022-07-29T13:12:15.276Z,8.20
2022-07-29T13:14:45.613Z,7.90
2022-07-29T13:17:21.822Z,8.10
2022-07-29T13:20:07.222Z,8.10
2022-07-29T13:22:37.237Z,7.40
2022-07-29T13:25:07.679Z,6.50
2022-07-29T13:27:39.163Z,6.40
2022-07-29T13:30:10.123Z,6.90
2022-07-29T13:32:38.808Z,6.00
2022-07-29T13:35:09.489Z,6.50
2022-07-29T13:37:39.687Z,14.00
2022-07-29T13:40:10.759Z,8.70
2022-07-29T13:42:39.752Z,5.60
2022-07-29T13:45:10.096Z,5.80
2022-07-29T13:47:38.967Z,6.00
2022-07-29T13:50:10.936Z,5.50
2022-07-29T13:52:39.492Z,5.90
2022-07-29T13:55:09.357Z,5.70
2022-07-29T13:57:37.654Z,7.50
2022-07-29T14:00:07.542Z,7.20
2022-07-29T14:02:36.563Z,5.80
2022-07-29T14:05:08.706Z,5.30
2022-07-29T14:07:42.259Z,6.00
2022-07-29T14:10:11.041Z,5.50
2022-07-29T14:12:39.708Z,5.30
2022-07-29T14:15:09.180Z,5.80
2022-07-29T14:17:37.798Z,5.20
2022-07-29T14:20:07.311Z,5.90
2022-07-29T14:22:40.152Z,6.40
2022-07-29T14:25:14.582Z,6.00
2022-07-29T14:27:46.781Z,5.90
2022-07-29T14:30:15.594Z,6.20
2022-07-29T14:32:44.050Z,5.40
2022-07-29T14:35:12.534Z,5.20
2022-07-29T14:37:41.218Z,5.90
2022-07-29T14:40:11.823Z,5.40
2022-07-29T14:42:40.865Z,6.00
2022-07-29T14:45:10.963Z,5.40
2022-07-29T14:47:40.560Z,5.80
2022-07-29T14:50:10.084Z,9.00
2022-07-29T14:52:38.563Z,6.60
2022-07-29T14:55:19.797Z,5.30
2022-07-29T14:57:49.513Z,5.90
2022-07-29T15:00:19.164Z,5.60
2022-07-29T15:03:03.528Z,6.40
2022-07-29T15:05:32.734Z,5.40
2022-07-29T15:08:01.209Z,5.80
2022-07-29T15:10:30.029Z,5.40
2022-07-29T15:12:58.583Z,5.20
2022-07-29T15:15:27.287Z,5.40
2022-07-29T15:17:55.945Z,5.10
2022-07-29T15:20:26.986Z,5.40
2022-07-29T15:22:56.734Z,5.30
2022-07-29T15:25:28.254Z,5.40
2022-07-29T15:28:01.323Z,5.70
2022-07-29T15:30:33.444Z,6.80
2022-07-29T15:35:33.445Z,5.50
2022-07-29T15:38:09.513Z,5.40
2022-07-29T15:40:42.385Z,5.70
2022-07-29T15:43:10.974Z,5.30
2022-07-29T15:45:41.520Z,5.00
2022-07-29T15:48:14.641Z,4.90
2022-07-29T15:50:47.107Z,5.30
2022-07-29T15:53:15.757Z,5.50
2022-07-29T15:55:44.505Z,6.50
2022-07-29T15:58:13.129Z,5.00
2022-07-29T16:00:41.589Z,5.40
2022-07-29T16:03:10.092Z,6.10
2022-07-29T16:05:39.297Z,5.80
2022-07-29T16:08:07.775Z,6.90
2022-07-29T16:10:36.459Z,5.10
2022-07-29T16:13:04.943Z,5.50
2022-07-29T16:15:34.043Z,5.10
2022-07-29T16:18:02.419Z,5.60
2022-07-29T16:20:31.619Z,5.90
2022-07-29T16:22:59.997Z,5.30
2022-07-29T16:25:50.217Z,5.90
2022-07-29T16:28:17.549Z,5.70
2022-07-29T16:30:45.923Z,6.20
2022-07-29T16:33:14.200Z,6.40
2022-07-29T16:35:43.406Z,6.60
2022-07-29T16:38:12.305Z,6.00
2022-07-29T16:40:40.778Z,6.70
2022-07-29T16:43:09.386Z,6.20
2022-07-29T16:45:45.984Z,5.90
2022-07-29T16:48:17.972Z,6.50
2022-07-29T16:50:46.685Z,6.20
2022-07-29T16:53:15.070Z,6.00
2022-07-29T16:55:43.558Z,6.60
2022-07-29T16:58:12.303Z,7.00
2022-07-29T17:00:40.782Z,6.10
2022-07-29T17:03:09.411Z,6.50
2022-07-29T17:05:50.712Z,6.30
2022-07-29T17:08:23.468Z,6.60
2022-07-29T17:10:51.956Z,7.20
2022-07-29T17:13:20.636Z,7.00
2022-07-29T17:15:49.070Z,7.80
2022-07-29T17:18:17.601Z,6.50
2022-07-29T17:20:45.821Z,8.30
2022-07-29T17:23:14.059Z,14.70
2022-07-29T17:25:42.291Z,6.70
2022-07-29T17:28:10.561Z,6.40
2022-07-29T17:30:38.799Z,5.80
2022-07-29T17:33:07.018Z,5.90
2022-07-29T17:35:53.665Z,6.30
2022-07-29T17:38:21.941Z,5.50
2022-07-29T17:40:50.243Z,6.70
2022-07-29T17:43:18.514Z,6.10
2022-07-29T17:45:49.830Z,6.20
2022-07-29T17:48:20.127Z,6.50
2022-07-29T17:50:49.273Z,6.90
2022-07-29T17:53:18.260Z,7.20
2022-07-29T17:55:48.840Z,6.80
2022-07-29T17:58:17.131Z,6.80
2022-07-29T18:00:45.538Z,6.70
2022-07-29T18:03:15.061Z,7.00
2022-07-29T18:05:43.457Z,7.10
2022-07-29T18:08:12.927Z,7.20
2022-07-29T18:10:41.602Z,6.70
2022-07-29T18:13:12.756Z,6.80
2022-07-29T18:15:41.615Z,7.00
2022-07-29T18:18:10.050Z,7.70
2022-07-29T18:20:38.634Z,7.90
2022-07-29T18:23:07.726Z,8.20
2022-07-29T18:25:36.307Z,8.90
2022-07-29T18:28:05.538Z,11.90
2022-07-29T18:30:34.708Z,12.50
2022-07-29T18:33:20.735Z,9.50
2022-07-29T18:35:51.653Z,9.00
2022-07-29T18:38:21.951Z,8.40
2022-07-29T18:40:50.258Z,8.90
2022-07-29T18:43:18.494Z,10.20
2022-07-29T18:45:48.125Z,10.50
2022-07-29T18:48:16.502Z,9.50
2022-07-29T18:50:45.401Z,9.70
2022-07-29T18:53:13.707Z,8.00
2022-07-29T18:55:42.088Z,8.10
2022-07-29T18:58:10.315Z,8.50
2022-07-29T19:00:39.099Z,7.60
2022-07-29T19:03:07.403Z,6.60
2022-07-29T19:05:35.812Z,6.40
2022-07-29T19:08:04.230Z,8.20
2022-07-29T19:10:32.476Z,8.20
2022-07-29T19:13:00.814Z,9.70
2022-07-29T19:15:29.279Z,8.40
2022-07-29T19:18:00.964Z,7.20
2022-07-29T19:20:29.768Z,7.30
2022-07-29T19:22:58.716Z,8.30
2022-07-29T19:25:26.989Z,7.20
2022-07-29T19:27:55.247Z,7.40
2022-07-29T19:30:23.524Z,6.30
2022-07-29T19:32:51.793Z,5.50
2022-07-29T19:35:31.678Z,5.50
2022-07-29T19:38:02.436Z,6.30
2022-07-29T19:40:30.709Z,5.00
2022-07-29T19:42:59.495Z,5.20
2022-07-29T19:45:28.947Z,4.40
2022-07-29T19:48:01.251Z,4.60
2022-07-29T19:50:30.675Z,4.00
2022-07-29T19:52:59.996Z,4.40
2022-07-29T19:55:28.641Z,5.00
2022-07-29T19:57:59.084Z,4.70
2022-07-29T20:00:28.734Z,4.60
2022-07-29T20:02:58.533Z,5.20
2022-07-29T20:05:28.472Z,4.30
2022-07-29T20:07:57.330Z,4.40
2022-07-29T20:10:25.891Z,5.10
2022-07-29T20:12:55.225Z,4.60
2022-07-29T20:15:23.765Z,4.80
2022-07-29T20:17:56.901Z,4.70
2022-07-29T20:20:26.371Z,5.50
2022-07-29T20:22:54.766Z,5.90
2022-07-29T20:25:24.308Z,5.90
2022-07-29T20:27:52.958Z,6.60
2022-07-29T20:30:22.867Z,7.50
2022-07-29T20:32:51.158Z,8.20
2022-07-29T20:35:19.970Z,8.30
2022-07-29T20:37:56.004Z,8.60
2022-07-29T20:40:29.361Z,8.20
2022-07-29T20:42:57.609Z,7.50
2022-07-29T20:45:25.984Z,6.70
2022-07-29T20:47:54.222Z,6.70
2022-07-29T20:50:25.200Z,5.80
2022-07-29T20:52:53.446Z,5.70
2022-07-29T20:55:21.803Z,6.60
2022-07-29T20:57:50.103Z,5.60
2022-07-29T21:00:18.545Z,5.40
2022-07-29T21:02:47.402Z,5.20
2022-07-29T21:05:16.370Z,5.50
2022-07-29T21:07:44.704Z,7.60
2022-07-29T21:10:14.437Z,5.90
2022-07-29T21:12:42.779Z,5.70
2022-07-29T21:15:13.653Z,6.20
2022-07-29T21:17:48.879Z,6.10
2022-07-29T21:20:20.667Z,6.20
2022-07-29T21:22:49.252Z,7.00
2022-07-29T21:25:17.471Z,8.30
2022-07-29T21:28:04.078Z,9.90
2022-07-29T21:30:32.931Z,8.00
2022-07-29T21:33:03.350Z,10.80
2022-07-29T21:36:06.601Z,11.70
2022-07-29T21:38:20.525Z,10.70
2022-07-29T21:40:51.779Z,10.00
2022-07-29T21:43:20.655Z,8.70
2022-07-29T21:45:52.193Z,7.30
2022-07-29T21:48:21.707Z,7.10
2022-07-29T21:50:51.319Z,6.60
2022-07-29T21:53:22.842Z,7.50
2022-07-29T21:55:52.033Z,7.80
2022-07-29T21:58:23.006Z,8.70
2022-07-29T22:00:51.611Z,9.80
2022-07-29T22:03:20.249Z,11.20
2022-07-29T22:05:48.511Z,11.40
2022-07-29T22:08:16.814Z,10.70
2022-07-29T22:10:45.568Z,8.60
2022-07-29T22:13:13.814Z,6.10
2022-07-29T22:15:46.830Z,5.80
2022-07-29T22:18:20.819Z,5.90
2022-07-29T22:20:50.641Z,6.00
2022-07-29T22:23:19.089Z,5.50
2022-07-29T22:25:47.419Z,5.20
2022-07-29T22:28:15.723Z,5.40
2022-07-29T22:30:43.996Z,4.90
2022-07-29T22:33:17.922Z,5.10
2022-07-29T22:35:48.697Z,5.20
2022-07-29T22:38:18.654Z,5.50
2022-07-29T22:40:48.687Z,5.00
2022-07-29T22:43:18.907Z,5.20
2022-07-29T22:45:47.306Z,5.20
2022-07-29T22:48:15.706Z,5.20
2022-07-29T22:50:44.054Z,4.60
2022-07-29T22:53:12.334Z,4.90
2022-07-29T22:55:40.726Z,4.30
2022-07-29T22:58:08.984Z,5.00
2022-07-29T23:00:37.359Z,4.80
2022-07-29T23:03:05.631Z,4.70
2022-07-29T23:05:33.916Z,4.50
2022-07-29T23:08:02.175Z,4.00
2022-07-29T23:10:30.466Z,4.50
2022-07-29T23:12:58.822Z,4.60
2022-07-29T23:15:27.056Z,4.80
2022-07-29T23:17:55.429Z,6.00
2022-07-29T23:20:23.756Z,5.90
2022-07-29T23:22:52.102Z,5.20
2022-07-29T23:25:20.965Z,4.20
2022-07-29T23:27:49.230Z,4.90
2022-07-29T23:30:17.549Z,5.30
2022-07-29T23:32:45.968Z,5.50
2022-07-29T23:35:14.195Z,5.50
2022-07-29T23:37:42.426Z,6.00
2022-07-29T23:40:14.460Z,6.10
2022-07-29T23:42:43.748Z,6.20
2022-07-29T23:45:13.790Z,8.00
2022-07-29T23:47:42.744Z,6.30
2022-07-29T23:50:12.702Z,6.80
2022-07-29T23:52:41.505Z,7.70
2022-07-29T23:55:36.958Z,7.40
2022-07-29T23:58:03.110Z,6.00
